createdAt,value
2022-12-26T00:01:23.872Z,33.37
2022-12-26T00:03:53.947Z,33.80
2022-12-26T00:06:24.792Z,33.23
2022-12-26T00:08:53.132Z,34.27
2022-12-26T00:11:22.182Z,34.00
2022-12-26T00:13:55.451Z,35.40
2022-12-26T00:16:25.313Z,35.20
2022-12-26T00:18:55.459Z,35.20
2022-12-26T00:21:27.110Z,32.00
2022-12-26T00:23:56.450Z,31.97
2022-12-26T00:26:26.070Z,34.33
2022-12-26T00:28:55.512Z,31.63
2022-12-26T00:31:25.468Z,29.37
2022-12-26T00:33:55.147Z,29.60
2022-12-26T00:36:25.251Z,30.83
2022-12-26T00:38:53.749Z,28.33
2022-12-26T00:41:22.811Z,28.47
2022-12-26T00:43:51.947Z,26.63
2022-12-26T00:46:20.682Z,28.70
2022-12-26T00:48:49.058Z,28.50
2022-12-26T00:51:19.198Z,26.13
2022-12-26T00:53:47.728Z,27.40
2022-12-26T00:56:15.915Z,28.77
2022-12-26T00:58:44.272Z,25.13
2022-12-26T01:01:16.329Z,30.20
2022-12-26T01:03:48.124Z,28.60
2022-12-26T01:06:16.974Z,28.23
2022-12-26T01:08:46.548Z,26.63
2022-12-26T01:11:36.694Z,27.10
2022-12-26T01:14:04.975Z,28.27
2022-12-26T01:16:33.230Z,28.63
2022-12-26T01:19:02.967Z,27.93
2022-12-26T01:21:31.402Z,29.20
2022-12-26T01:24:00.941Z,27.80
2022-12-26T01:26:29.185Z,28.17
2022-12-26T01:28:57.335Z,28.10
2022-12-26T01:31:25.692Z,27.13
2022-12-26T01:33:53.883Z,27.70
2022-12-26T01:36:22.065Z,30.10
2022-12-26T01:38:50.237Z,32.27
2022-12-26T01:41:20.977Z,29.37
2022-12-26T01:43:58.116Z,31.27
2022-12-26T01:46:31.740Z,29.73
2022-12-26T01:49:03.019Z,30.07
2022-12-26T01:51:35.145Z,31.13
2022-12-26T01:54:37.289Z,31.63
2022-12-26T01:56:56.375Z,32.10
2022-12-26T01:59:30.202Z,35.17
2022-12-26T02:02:01.440Z,37.93
2022-12-26T02:04:52.137Z,36.90
2022-12-26T02:07:20.495Z,37.10
2022-12-26T02:09:48.791Z,38.00
2022-12-26T02:12:34.631Z,38.40
2022-12-26T02:15:07.656Z,40.80
2022-12-26T02:17:36.077Z,42.40
2022-12-26T02:20:16.115Z,41.43
2022-12-26T02:23:17.698Z,41.63
2022-12-26T02:26:24.209Z,42.03
2022-12-26T02:29:17.444Z,42.47
2022-12-26T02:31:56.517Z,41.87
2022-12-26T02:34:28.405Z,40.27
2022-12-26T02:37:15.296Z,40.27
2022-12-26T02:40:02.492Z,38.87
2022-12-26T02:42:40.503Z,40.00
2022-12-26T02:45:35.600Z,37.77
2022-12-26T02:48:13.638Z,36.27
2022-12-26T02:51:19.296Z,36.00
2022-12-26T02:54:11.636Z,31.07
2022-12-26T02:57:08.436Z,33.17
2022-12-26T03:00:06.625Z,31.20
2022-12-26T03:02:58.548Z,32.27
2022-12-26T03:05:49.336Z,31.77
2022-12-26T03:08:44.250Z,31.47
2022-12-26T03:11:30.032Z,32.50
2022-12-26T03:14:08.234Z,33.37
2022-12-26T03:16:53.781Z,30.30
2022-12-26T03:19:24.716Z,32.17
2022-12-26T03:21:54.577Z,30.80
2022-12-26T03:24:24.221Z,31.90
2022-12-26T03:26:54.967Z,29.50
2022-12-26T03:29:42.610Z,31.47
2022-12-26T03:32:15.162Z,29.67
2022-12-26T03:34:45.894Z,29.40
2022-12-26T03:37:48.982Z,30.97
2022-12-26T03:40:49.390Z,29.27
2022-12-26T03:43:45.060Z,27.63
2022-12-26T03:46:37.975Z,28.87
2022-12-26T03:49:30.857Z,26.73
2022-12-26T03:52:21.283Z,27.10
2022-12-26T03:55:26.923Z,26.77
2022-12-26T03:58:20.185Z,26.97
2022-12-26T04:01:08.919Z,25.10
2022-12-26T04:03:57.487Z,26.00
2022-12-26T04:06:47.032Z,24.20
2022-12-26T04:09:37.581Z,25.20
2022-12-26T04:12:29.469Z,24.17
2022-12-26T04:15:21.163Z,25.67
2022-12-26T04:18:13.113Z,26.63
2022-12-26T04:20:49.425Z,26.03
2022-12-26T04:23:41.449Z,26.00
2022-12-26T04:26:35.957Z,26.53
2022-12-26T04:29:23.281Z,26.17
2022-12-26T04:32:15.089Z,26.07
2022-12-26T04:35:09.493Z,25.30
2022-12-26T04:38:00.456Z,25.00
2022-12-26T04:40:52.939Z,29.77
2022-12-26T04:43:50.391Z,31.17
2022-12-26T04:46:23.005Z,31.30
2022-12-26T04:49:11.423Z,31.83
2022-12-26T04:51:39.686Z,34.50
2022-12-26T04:54:08.403Z,32.07
2022-12-26T04:56:36.761Z,27.27
2022-12-26T04:59:05.430Z,37.33
2022-12-26T05:01:52.515Z,37.03
2022-12-26T05:04:38.457Z,36.30
2022-12-26T05:07:42.466Z,37.97
2022-12-26T05:10:16.561Z,35.77
2022-12-26T05:12:44.928Z,35.30
2022-12-26T05:15:13.598Z,35.50
2022-12-26T05:18:00.774Z,34.63
2022-12-26T05:20:45.365Z,32.70
2022-12-26T05:23:36.341Z,32.40
2022-12-26T05:26:22.949Z,35.43
2022-12-26T05:28:57.572Z,33.57
2022-12-26T05:31:31.169Z,31.70
2022-12-26T05:34:06.600Z,33.30
2022-12-26T05:36:38.766Z,31.20
2022-12-26T05:39:08.566Z,31.87
2022-12-26T05:41:37.422Z,33.47
2022-12-26T05:44:06.302Z,30.97
2022-12-26T05:46:34.757Z,34.03
2022-12-26T05:49:05.099Z,33.80
2022-12-26T05:51:34.559Z,31.93
2022-12-26T05:54:03.333Z,33.37
2022-12-26T05:56:31.878Z,32.83
2022-12-26T05:59:02.116Z,32.60
2022-12-26T06:01:31.312Z,31.77
2022-12-26T06:04:01.251Z,31.50
2022-12-26T06:06:30.857Z,32.47
2022-12-26T06:08:59.277Z,33.17
2022-12-26T06:11:28.284Z,33.93
2022-12-26T06:13:57.007Z,34.57
2022-12-26T06:16:25.860Z,35.90
2022-12-26T06:18:55.668Z,36.40
2022-12-26T06:21:24.763Z,36.27
2022-12-26T06:23:54.460Z,35.60
2022-12-26T06:26:22.660Z,38.13
2022-12-26T06:28:50.914Z,37.30
2022-12-26T06:31:22.165Z,38.57
2022-12-26T06:33:51.468Z,36.90
2022-12-26T06:36:21.575Z,36.37
2022-12-26T06:38:50.409Z,36.90
2022-12-26T06:41:22.283Z,37.90
2022-12-26T06:43:50.708Z,36.70
2022-12-26T06:46:20.648Z,38.20
2022-12-26T06:48:49.253Z,35.93
2022-12-26T06:51:19.454Z,35.83
2022-12-26T06:53:48.065Z,35.20
2022-12-26T06:56:18.584Z,35.20
2022-12-26T06:58:48.774Z,34.40
2022-12-26T07:01:19.096Z,32.53
2022-12-26T07:03:51.612Z,35.23
2022-12-26T07:06:24.728Z,34.77
2022-12-26T07:08:53.790Z,36.63
2022-12-26T07:11:25.757Z,34.80
2022-12-26T07:13:55.612Z,33.37
2022-12-26T07:16:24.811Z,32.70
2022-12-26T07:18:54.934Z,33.17
2022-12-26T07:21:23.556Z,34.53
2022-12-26T07:23:52.105Z,32.03
2022-12-26T07:26:20.568Z,32.73
2022-12-26T07:28:48.804Z,30.80
2022-12-26T07:31:20.073Z,33.07
2022-12-26T07:33:49.745Z,31.03
2022-12-26T07:36:18.518Z,29.77
2022-12-26T07:38:47.145Z,28.43
2022-12-26T07:41:33.815Z,30.20
2022-12-26T07:44:02.073Z,29.60
2022-12-26T07:46:31.947Z,28.23
2022-12-26T07:49:00.655Z,29.00
2022-12-26T07:51:28.954Z,29.20
2022-12-26T07:53:57.295Z,31.57
2022-12-26T07:56:25.527Z,28.57
2022-12-26T07:58:53.763Z,29.90
2022-12-26T08:01:21.992Z,28.50
2022-12-26T08:03:52.282Z,29.40
2022-12-26T08:06:20.686Z,29.00
2022-12-26T08:08:51.413Z,29.13
2022-12-26T08:11:22.142Z,28.13
2022-12-26T08:13:50.695Z,29.23
2022-12-26T08:16:18.921Z,28.07
2022-12-26T08:18:47.177Z,29.83
2022-12-26T08:21:17.130Z,28.67
2022-12-26T08:23:45.403Z,29.17
2022-12-26T08:26:20.635Z,28.00
2022-12-26T08:28:48.857Z,28.03
2022-12-26T08:31:17.023Z,28.00
2022-12-26T08:33:45.223Z,25.37
2022-12-26T08:36:16.856Z,27.40
2022-12-26T08:38:47.499Z,27.13
2022-12-26T08:41:17.717Z,27.67
2022-12-26T08:46:38.237Z,28.60
2022-12-26T08:49:06.347Z,26.90
2022-12-26T08:51:34.526Z,27.60
2022-12-26T08:54:03.988Z,28.00
2022-12-26T08:56:32.717Z,27.20
2022-12-26T08:59:00.830Z,27.80
2022-12-26T09:01:30.474Z,28.77
2022-12-26T09:04:00.781Z,26.80
2022-12-26T09:06:30.282Z,28.87
2022-12-26T09:09:00.503Z,26.87
2022-12-26T09:11:30.583Z,27.60
2022-12-26T09:14:00.684Z,28.40
2022-12-26T09:16:37.188Z,29.93
2022-12-26T09:19:07.037Z,28.10
2022-12-26T09:21:35.185Z,28.50
2022-12-26T09:24:05.156Z,30.00
2022-12-26T09:26:34.921Z,29.83
2022-12-26T09:29:03.171Z,29.73
2022-12-26T09:31:33.391Z,28.43
2022-12-26T09:34:04.776Z,27.57
2022-12-26T09:36:35.312Z,30.40
2022-12-26T09:39:03.510Z,28.67
2022-12-26T09:41:55.126Z,29.00
2022-12-26T09:44:29.161Z,27.77
2022-12-26T09:47:08.895Z,27.00
2022-12-26T09:49:43.242Z,27.50
2022-12-26T09:52:16.911Z,27.90
2022-12-26T09:54:50.539Z,24.97
2022-12-26T09:57:23.719Z,26.40
2022-12-26T09:59:55.822Z,24.07
2022-12-26T10:02:26.625Z,24.60
2022-12-26T10:04:55.965Z,24.60
2022-12-26T10:07:30.273Z,22.90
2022-12-26T10:10:11.995Z,21.60
2022-12-26T10:12:49.141Z,23.60
2022-12-26T10:15:33.112Z,19.80
2022-12-26T10:18:12.314Z,20.03
2022-12-26T10:20:53.100Z,21.33
2022-12-26T10:23:33.523Z,17.90
2022-12-26T10:26:08.682Z,19.67
2022-12-26T10:28:46.053Z,17.73
2022-12-26T10:31:19.219Z,17.30
2022-12-26T10:33:52.090Z,16.10
2022-12-26T10:36:30.490Z,15.27
2022-12-26T10:39:00.949Z,11.33
2022-12-26T10:41:36.751Z,14.83
2022-12-26T10:44:06.413Z,13.50
2022-12-26T10:47:03.534Z,12.60
2022-12-26T10:49:31.712Z,15.17
2022-12-26T10:52:02.507Z,13.50
2022-12-26T10:54:31.707Z,13.23
2022-12-26T10:57:01.790Z,12.30
2022-12-26T10:59:43.142Z,13.10
2022-12-26T11:02:25.483Z,12.67
2022-12-26T11:05:16.006Z,12.10
2022-12-26T11:07:53.054Z,11.50
2022-12-26T11:10:23.074Z,11.23
2022-12-26T11:12:54.131Z,11.33
2022-12-26T11:15:32.277Z,10.53
2022-12-26T11:18:10.991Z,11.10
2022-12-26T11:20:39.856Z,11.37
2022-12-26T11:23:26.462Z,9.90
2022-12-26T11:25:56.143Z,11.40
2022-12-26T11:28:30.465Z,10.13
2022-12-26T11:31:01.519Z,9.77
2022-12-26T11:33:33.571Z,10.40
2022-12-26T11:36:17.905Z,9.10
2022-12-26T11:39:23.771Z,9.53
2022-12-26T11:42:42.792Z,9.63
2022-12-26T11:46:02.471Z,9.33
2022-12-26T11:53:03.391Z,8.70
2022-12-26T11:55:48.621Z,8.10
2022-12-26T12:01:31.481Z,8.70
2022-12-26T12:04:29.847Z,8.10
2022-12-26T12:07:28.362Z,7.50
2022-12-26T12:10:56.867Z,7.23
2022-12-26T12:14:13.015Z,5.90
2022-12-26T12:17:29.384Z,5.07
2022-12-26T12:20:30.096Z,3.10
2022-12-26T12:23:34.696Z,2.53
2022-12-26T12:26:35.728Z,2.60
2022-12-26T12:29:33.821Z,2.00
2022-12-26T12:32:24.714Z,2.50
2022-12-26T12:38:45.845Z,1.60
2022-12-26T12:41:53.174Z,1.50
2022-12-26T12:48:36.186Z,1.43
2022-12-26T12:51:39.929Z,1.20
2022-12-26T12:54:48.820Z,1.10
2022-12-26T12:57:53.564Z,1.40
2022-12-26T13:03:57.913Z,1.40
2022-12-26T13:06:50.749Z,1.80
2022-12-26T13:09:50.056Z,1.20
2022-12-26T13:12:37.019Z,1.37
2022-12-26T13:15:21.302Z,2.20
2022-12-26T13:18:29.020Z,1.37
2022-12-26T13:21:14.442Z,1.27
2022-12-26T13:24:16.882Z,1.37
2022-12-26T13:27:37.430Z,1.40
2022-12-26T13:30:37.847Z,1.40
2022-12-26T13:33:20.387Z,1.83
2022-12-26T13:36:13.267Z,1.80
2022-12-26T13:39:49.327Z,1.93
2022-12-26T13:42:59.584Z,1.83
2022-12-26T13:50:10.217Z,1.80
2022-12-26T13:53:24.920Z,1.20
2022-12-26T13:56:40.965Z,1.90
2022-12-26T13:59:53.572Z,1.40
2022-12-26T14:03:18.535Z,1.40
2022-12-26T14:06:25.171Z,2.00
2022-12-26T14:09:40.529Z,1.90
2022-12-26T14:12:53.396Z,2.60
2022-12-26T14:15:51.605Z,2.27
2022-12-26T14:19:03.024Z,2.00
2022-12-26T14:21:57.352Z,2.43
2022-12-26T14:24:51.151Z,2.50
2022-12-26T14:27:44.405Z,3.40
2022-12-26T14:30:31.075Z,2.03
2022-12-26T14:33:32.438Z,2.70
2022-12-26T14:36:58.012Z,2.60
2022-12-26T14:39:43.191Z,2.83
2022-12-26T14:42:51.060Z,2.50
2022-12-26T14:45:57.532Z,2.30
2022-12-26T14:52:20.123Z,2.37
2022-12-26T14:55:03.503Z,2.53
2022-12-26T15:01:37.690Z,2.40
2022-12-26T15:04:29.453Z,2.57
2022-12-26T15:07:46.790Z,3.00
2022-12-26T15:14:41.984Z,3.23
2022-12-26T15:17:49.682Z,4.00
2022-12-26T15:21:08.341Z,3.00
2022-12-26T15:27:57.783Z,4.20
2022-12-26T15:31:10.815Z,3.63
2022-12-26T15:34:05.768Z,4.40
2022-12-26T15:37:06.336Z,3.60
2022-12-26T15:39:53.146Z,3.90
2022-12-26T15:42:49.957Z,3.87
2022-12-26T15:45:52.524Z,3.60
2022-12-26T15:49:04.271Z,3.10
2022-12-26T15:55:29.783Z,3.77
2022-12-26T15:58:07.157Z,3.60
2022-12-26T16:00:39.513Z,3.70
2022-12-26T16:03:26.374Z,3.83
2022-12-26T16:06:01.865Z,4.50
2022-12-26T16:08:52.903Z,3.73
2022-12-26T16:11:23.240Z,4.67
2022-12-26T16:13:54.815Z,3.90
2022-12-26T16:16:35.349Z,4.50
2022-12-26T16:19:22.708Z,5.40
2022-12-26T16:22:13.381Z,4.63
2022-12-26T16:24:43.282Z,4.50
2022-12-26T16:27:26.651Z,4.30
2022-12-26T16:29:59.296Z,4.30
2022-12-26T16:32:31.771Z,4.30
2022-12-26T16:35:00.416Z,8.63
2022-12-26T16:37:30.971Z,5.20
2022-12-26T16:40:17.900Z,4.57
2022-12-26T16:42:55.139Z,5.50
2022-12-26T16:45:24.594Z,4.10
2022-12-26T16:47:53.523Z,4.30
2022-12-26T16:50:25.270Z,6.60
2022-12-26T16:53:09.379Z,4.87
2022-12-26T16:55:44.271Z,5.60
2022-12-26T16:58:24.825Z,5.17
2022-12-26T17:01:03.982Z,4.80
2022-12-26T17:03:39.408Z,4.77
2022-12-26T17:06:15.632Z,4.90
2022-12-26T17:08:48.383Z,4.90
2022-12-26T17:11:16.801Z,6.43
2022-12-26T17:13:51.418Z,4.70
2022-12-26T17:16:19.599Z,7.07
2022-12-26T17:18:52.535Z,6.10
2022-12-26T17:21:31.763Z,5.90
2022-12-26T17:24:24.520Z,5.17
2022-12-26T17:27:08.619Z,4.47
2022-12-26T17:29:39.250Z,4.43
2022-12-26T17:32:09.539Z,4.60
2022-12-26T17:34:40.194Z,3.93
2022-12-26T17:37:20.225Z,4.07
2022-12-26T17:39:59.023Z,4.47
2022-12-26T17:42:31.052Z,4.73
2022-12-26T17:44:59.694Z,4.63
2022-12-26T17:47:29.433Z,3.63
2022-12-26T17:49:58.235Z,6.17
2022-12-26T17:52:29.967Z,5.07
2022-12-26T17:54:59.771Z,5.57
2022-12-26T17:57:29.886Z,4.60
2022-12-26T17:59:58.487Z,5.30
2022-12-26T18:02:26.757Z,5.00
2022-12-26T18:04:55.863Z,5.03
2022-12-26T18:07:31.441Z,5.57
2022-12-26T18:10:02.556Z,4.70
2022-12-26T18:12:30.695Z,6.67
2022-12-26T18:15:01.986Z,7.07
2022-12-26T18:17:33.641Z,6.07
2022-12-26T18:20:02.063Z,7.10
2022-12-26T18:22:30.147Z,6.80
2022-12-26T18:24:58.333Z,5.60
2022-12-26T18:27:31.318Z,5.20
2022-12-26T18:29:59.905Z,5.20
2022-12-26T18:32:30.301Z,5.60
2022-12-26T18:34:58.936Z,5.10
2022-12-26T18:37:29.409Z,5.53
2022-12-26T18:39:57.752Z,5.20
2022-12-26T18:42:27.316Z,6.00
2022-12-26T18:44:55.761Z,5.10
2022-12-26T18:47:24.189Z,5.90
2022-12-26T18:49:52.352Z,5.40
2022-12-26T18:52:20.511Z,6.27
2022-12-26T18:54:48.631Z,5.83
2022-12-26T18:57:19.713Z,5.20
2022-12-26T18:59:49.404Z,5.00
2022-12-26T19:02:19.682Z,4.80
2022-12-26T19:04:50.221Z,5.10
2022-12-26T19:07:20.411Z,4.43
2022-12-26T19:09:50.609Z,5.53
2022-12-26T19:12:18.975Z,4.50
2022-12-26T19:14:47.168Z,4.67
2022-12-26T19:17:17.101Z,4.50
2022-12-26T19:19:45.348Z,5.70
2022-12-26T19:22:13.476Z,5.10
2022-12-26T19:24:41.635Z,5.30
2022-12-26T19:27:09.845Z,5.73
2022-12-26T19:29:37.969Z,4.90
2022-12-26T19:32:06.459Z,5.17
2022-12-26T19:34:35.949Z,6.80
2022-12-26T19:37:04.066Z,4.90
2022-12-26T19:39:32.265Z,4.33
2022-12-26T19:42:00.361Z,4.70
2022-12-26T19:44:29.972Z,4.33
2022-12-26T19:47:11.645Z,4.17
2022-12-26T19:49:42.417Z,4.43
2022-12-26T19:52:11.144Z,4.20
2022-12-26T19:54:39.291Z,4.17
2022-12-26T19:57:07.630Z,4.50
2022-12-26T19:59:35.950Z,4.67
2022-12-26T20:02:04.772Z,4.00
2022-12-26T20:04:33.073Z,5.13
2022-12-26T20:07:02.696Z,4.30
2022-12-26T20:09:30.954Z,5.37
2022-12-26T20:11:59.240Z,4.53
2022-12-26T20:14:28.430Z,5.70
2022-12-26T20:17:06.660Z,4.87
2022-12-26T20:19:35.944Z,4.60
2022-12-26T20:22:06.171Z,5.10
2022-12-26T20:24:34.580Z,4.13
2022-12-26T20:27:03.099Z,4.80
2022-12-26T20:29:31.466Z,4.37
2022-12-26T20:31:59.907Z,4.63
2022-12-26T20:34:28.072Z,5.33
2022-12-26T20:36:56.151Z,5.57
2022-12-26T20:39:26.165Z,4.47
2022-12-26T20:41:54.320Z,5.47
2022-12-26T20:44:22.513Z,5.00
2022-12-26T20:46:50.687Z,4.40
2022-12-26T20:49:18.802Z,3.87
2022-12-26T20:51:46.974Z,3.73
2022-12-26T20:54:16.409Z,4.90
2022-12-26T20:56:47.174Z,4.00
2022-12-26T20:59:15.375Z,5.07
2022-12-26T21:01:43.648Z,4.80
2022-12-26T21:04:18.390Z,4.07
2022-12-26T21:06:47.507Z,3.97
2022-12-26T21:09:15.780Z,3.80
2022-12-26T21:11:45.525Z,4.20
2022-12-26T21:14:17.717Z,3.13
2022-12-26T21:16:47.915Z,4.20
2022-12-26T21:19:17.007Z,4.30
2022-12-26T21:21:47.918Z,5.43
2022-12-26T21:24:19.551Z,3.73
2022-12-26T21:26:48.323Z,4.10
2022-12-26T21:29:20.705Z,4.57
2022-12-26T21:31:49.762Z,3.97
2022-12-26T21:34:19.446Z,3.87
2022-12-26T21:37:08.329Z,3.57
2022-12-26T21:39:38.271Z,4.33
2022-12-26T21:42:08.278Z,4.10
2022-12-26T21:44:38.481Z,4.67
2022-12-26T21:47:08.230Z,4.50
2022-12-26T21:49:37.242Z,4.30
2022-12-26T21:52:06.240Z,4.27
2022-12-26T21:54:52.220Z,3.70
2022-12-26T21:57:21.483Z,3.90
2022-12-26T22:00:00.092Z,3.40
2022-12-26T22:02:48.604Z,3.63
2022-12-26T22:05:18.325Z,3.00
2022-12-26T22:07:46.534Z,3.73
2022-12-26T22:10:35.483Z,4.00
2022-12-26T22:13:03.154Z,2.60
2022-12-26T22:15:50.400Z,3.47
2022-12-26T22:18:18.826Z,3.70
2022-12-26T22:20:47.130Z,3.13
2022-12-26T22:23:15.332Z,4.13
2022-12-26T22:25:43.628Z,3.47
2022-12-26T22:28:11.976Z,3.60
2022-12-26T22:30:48.544Z,3.40
2022-12-26T22:33:17.292Z,3.90
2022-12-26T22:35:46.017Z,3.43
2022-12-26T22:38:14.462Z,3.60
2022-12-26T22:40:42.850Z,3.63
2022-12-26T22:43:11.001Z,3.00
2022-12-26T22:45:43.671Z,3.70
2022-12-26T22:48:11.801Z,4.00
2022-12-26T22:50:44.027Z,3.80
2022-12-26T22:53:12.975Z,3.63
2022-12-26T22:55:48.435Z,3.83
2022-12-26T22:58:18.804Z,3.37
2022-12-26T23:00:53.857Z,4.40
2022-12-26T23:03:22.237Z,3.50
2022-12-26T23:05:51.110Z,3.60
2022-12-26T23:08:21.880Z,3.70
2022-12-26T23:10:52.307Z,3.57
2022-12-26T23:13:20.830Z,3.83
2022-12-26T23:15:56.380Z,3.40
2022-12-26T23:18:53.713Z,3.20
2022-12-26T23:21:42.047Z,3.20
2022-12-26T23:24:15.210Z,3.17
2022-12-26T23:26:45.911Z,2.57
2022-12-26T23:29:32.867Z,3.03
2022-12-26T23:32:02.688Z,2.50
2022-12-26T23:34:31.248Z,3.13
2022-12-26T23:36:59.333Z,3.57
2022-12-26T23:39:27.818Z,2.90
2022-12-26T23:41:56.318Z,4.00
2022-12-26T23:44:24.899Z,3.20
2022-12-26T23:46:53.325Z,2.60
2022-12-26T23:49:22.851Z,3.30
2022-12-26T23:51:50.898Z,3.20
2022-12-26T23:54:19.027Z,3.40
2022-12-26T23:56:47.204Z,3.53
2022-12-26T23:59:15.249Z,3.20
